Dunnsville, Virginia
Current Conditions -  °F | °C
As of 2:55 AM on Thursday 23 Oct 2014 (Local Time) from KXSA Reporting Station
Scattered Clouds Scattered Clouds  
Wind Chill: 52°   Ceiling: Unl
Heat Index: 52°   Visibility: 10mi
Dew Point: 40°   Wind: 6mph
Humidity: 63%   Direction: 290°WNW
Pressure: 29.9"   Gusts: 17mph
Location:  37.86°N, 76.82°W
Report Text: KXSA 230655Z AUTO 29005G15KT 10SM SCT034 11/04 A2990 RMK AO2 T01100042
Loading
Personal Weather Stations






























Interactive Weather Map
Tropical Storm Tracking
New forecast layout! Learn more

10-Day Weather Forecast

Advertisements
Track Severe Weather on mobile